»·PEaware :: RA85317 KLAS-KSNA

RA85317 :: KLAS-KSNA

FLIGHT INFORMATION

Flight Status: Arrived
Operator: Privately registered:
Russian Federation
More flights under this callsign
Pilot: Alex A. (3534)
Aircraft: TUPOLEV TU-154
(T154)
More flights by this aircraft type
Origin: KLAS McCarran Intl
United States
Destination: KSNA John Wayne-Orange Co
United States
More flights between these airports :: More routes between these airports
Route: +MCCRN4 HEC KAYOH7
File this flight plan on PilotEdge
Remarks: plz speek slowly
Altitude:
(Current/Filed)
28,000ft
Speed:
(Current/Filed)
450kts
Departed: 04-Jul-17 10:35 AM
Arrived: 04-Jul-17 11:28 AM
Distance/Time
Traveled:
197nm/0:53
Distance/Time
To Go:
Arrived

Flight Plot

Page will automatically refresh every two minutes.

Flight plan parsing failed; only flown route is shown


Map Options




Map Legend


Flown Route
Filed Route
Departure Airport
Arrival Airport
Navaid (VOR, NDB)
Fix

Horizontal Profiles

Position Reports

Time Latitude Longitude Heading Altitude Ground
Speed
04-Jul-17 10:06 36.082340 -115.151523 44 2154ft 0kts
04-Jul-17 10:07 36.082340 -115.151523 44 2154ft 0kts
04-Jul-17 10:08 36.082340 -115.151523 44 2154ft 0kts
04-Jul-17 10:09 36.082340 -115.151523 44 2154ft 0kts
04-Jul-17 10:10 36.082340 -115.151523 44 2154ft 0kts
04-Jul-17 10:11 36.082340 -115.151523 44 2154ft 0kts
04-Jul-17 10:12 36.082340 -115.151522 44 2154ft 0kts
04-Jul-17 10:13 36.082340 -115.151522 44 2154ft 0kts
04-Jul-17 10:14 36.082340 -115.151522 44 2154ft 0kts
04-Jul-17 10:15 36.082340 -115.151522 44 2154ft 0kts
04-Jul-17 10:16 36.082340 -115.151522 44 2154ft 0kts
04-Jul-17 10:17 36.082340 -115.151522 44 2154ft 0kts
04-Jul-17 10:18 36.082340 -115.151522 44 2154ft 0kts
04-Jul-17 10:19 36.082340 -115.151522 44 2154ft 0kts
04-Jul-17 10:20 36.082340 -115.151522 44 2154ft 0kts
04-Jul-17 10:21 36.082340 -115.151522 44 2154ft 0kts
04-Jul-17 10:22 36.082344 -115.151518 45 2154ft 1kts
04-Jul-17 10:23 36.081986 -115.151963 90 2154ft 2kts
04-Jul-17 10:24 36.081960 -115.151855 110 2154ft 0kts
04-Jul-17 10:25 36.081960 -115.151855 110 2154ft 0kts
04-Jul-17 10:26 36.081732 -115.151531 134 2154ft 2kts
04-Jul-17 10:27 36.078905 -115.151091 179 2154ft 17kts
04-Jul-17 10:28 36.077735 -115.146636 94 2154ft 18kts
04-Jul-17 10:29 36.077528 -115.139436 89 2154ft 23kts
04-Jul-17 10:30 36.077561 -115.130614 87 2154ft 28kts
04-Jul-17 10:31 36.077546 -115.126431 91 2154ft 0kts
04-Jul-17 10:32 36.077477 -115.126227 131 2154ft 0kts
04-Jul-17 10:33 36.077477 -115.126227 131 2154ft 0kts
04-Jul-17 10:34 36.077476 -115.126226 131 2154ft 0kts
04-Jul-17 10:35 36.077476 -115.126226 131 2154ft 0kts
04-Jul-17 10:36 36.077292 -115.126032 157 2154ft 4kts
04-Jul-17 10:37 36.076411 -115.127529 267 2154ft 0kts
04-Jul-17 10:38 36.076394 -115.135909 271 2154ft 130kts
04-Jul-17 10:39 36.075442 -115.206910 268 4259ft 269kts
04-Jul-17 10:40 36.048887 -115.293999 213 6836ft 292kts
04-Jul-17 10:41 35.974991 -115.331190 200 7095ft 288kts
04-Jul-17 10:42 35.899957 -115.366877 200 7041ft 294kts
04-Jul-17 10:43 35.829518 -115.387322 192 7905ft 337kts
04-Jul-17 10:44 35.737269 -115.410248 193 11800ft 344kts
04-Jul-17 10:45 35.652710 -115.449466 224 15927ft 322kts
04-Jul-17 10:46 35.573900 -115.505035 206 18282ft 357kts
04-Jul-17 10:47 35.489700 -115.571106 214 19100ft 351kts
04-Jul-17 10:48 35.416288 -115.645654 219 19448ft 353kts
04-Jul-17 10:49 35.344469 -115.729713 222 22059ft 380kts
04-Jul-17 10:50 35.272377 -115.821848 223 25632ft 374kts
04-Jul-17 10:51 35.202129 -115.915620 225 28075ft 392kts
04-Jul-17 10:52 35.123392 -116.022304 225 28097ft 447kts
04-Jul-17 10:53 35.042174 -116.133152 225 28098ft 443kts
04-Jul-17 10:54 34.961707 -116.242118 225 28096ft 430kts
04-Jul-17 10:55 34.892442 -116.335389 225 28082ft 421kts
04-Jul-17 10:56 34.815541 -116.437252 226 27782ft 403kts
04-Jul-17 10:57 34.740227 -116.531875 220 26724ft 384kts
04-Jul-17 10:58 34.660083 -116.610882 220 25638ft 371kts
04-Jul-17 10:59 34.588304 -116.690988 219 24663ft 358kts
04-Jul-17 11:00 34.515211 -116.773350 219 22760ft 369kts
04-Jul-17 11:01 34.439994 -116.857758 219 20823ft 372kts
04-Jul-17 11:02 34.365216 -116.941218 219 18918ft 370kts
04-Jul-17 11:03 34.293682 -117.024042 221 15910ft 360kts
04-Jul-17 11:04 34.224201 -117.097241 207 13396ft 319kts
04-Jul-17 11:05 34.139450 -117.127437 193 13337ft 345kts
04-Jul-17 11:06 34.049525 -117.143139 188 12211ft 329kts
04-Jul-17 11:07 33.970689 -117.143586 184 10616ft 316kts
04-Jul-17 11:08 33.893037 -117.149219 184 9082ft 280kts
04-Jul-17 11:09 33.820525 -117.154906 188 8096ft 253kts
04-Jul-17 11:10 33.755313 -117.208282 241 8020ft 340kts
04-Jul-17 11:11 33.770034 -117.307645 294 8005ft 309kts
04-Jul-17 11:12 33.808735 -117.397571 294 7996ft 313kts
04-Jul-17 11:13 33.847892 -117.488186 288 7980ft 313kts
04-Jul-17 11:14 33.880141 -117.584059 288 7980ft 315kts
04-Jul-17 11:15 33.885996 -117.678719 237 7982ft 296kts
04-Jul-17 11:16 33.828285 -117.743869 218 6231ft 296kts
04-Jul-17 11:17 33.772759 -117.800603 218 5020ft 247kts
04-Jul-17 11:18 33.730041 -117.866387 268 3072ft 277kts
04-Jul-17 11:19 33.773607 -117.907433 21 2979ft 238kts
04-Jul-17 11:20 33.783515 -117.850564 148 2975ft 208kts
04-Jul-17 11:21 33.727886 -117.833755 187 1393ft 236kts
04-Jul-17 11:22 33.676672 -117.868541 208 228ft 200kts
04-Jul-17 11:23 33.618631 -117.903502 204 1017ft 229kts
04-Jul-17 11:24 33.570116 -117.877506 107 1388ft 244kts
04-Jul-17 11:25 33.606626 -117.818124 29 2101ft 251kts
04-Jul-17 11:26 33.666546 -117.782998 26 2181ft 259kts
04-Jul-17 11:27 33.725450 -117.766206 324 1909ft 232kts
04-Jul-17 11:28 33.738764 -117.824463 228 1433ft 177kts
04-Jul-17 11:29 33.704322 -117.850754 205 640ft 129kts
04-Jul-17 11:30 33.674388 -117.869611 207 69ft 108kts
04-Jul-17 11:31 33.667656 -117.873130 117 69ft 0kts
04-Jul-17 11:32 33.667655 -117.873129 117 69ft 0kts

Navigation Log

Ident Type
Flight plan parsing failed, navigation log unavailable